Time;durP1;ratioP1;P1;durP2;ratioP2;P2;SDS_P1;SDS_P2;PMS_P1;PMS_P2;Temp;Humidity;BMP_temperature;BMP_pressure;BME280_temperature;BME280_humidity;BME280_pressure;Samples;Min_cycle;Max_cycle;Signal;HPM_P1;HPM_P2
2021/05/15 00:01:48;;;;;;;14.38;10.93;;;13.30;93.30;;;;;;5034593;28;20029;-86
2021/05/15 00:04:14;;;;;;;14.73;11.43;;;13.30;93.20;;;;;;5034419;28;20017;-86
2021/05/15 00:06:40;;;;;;;16.58;11.85;;;13.30;93.90;;;;;;5034306;28;20033;-85
2021/05/15 00:09:06;;;;;;;16.10;10.82;;;13.30;93.80;;;;;;5034361;28;20060;-86
2021/05/15 00:11:32;;;;;;;15.45;10.73;;;13.30;93.70;;;;;;5034288;28;20023;-86
2021/05/15 00:13:57;;;;;;;17.33;11.63;;;13.30;93.60;;;;;;5034169;28;20021;-85
2021/05/15 00:16:23;;;;;;;17.08;11.60;;;13.30;93.80;;;;;;5034131;28;20394;-85
2021/05/15 00:18:49;;;;;;;16.73;11.40;;;13.30;93.80;;;;;;5033816;28;20394;-85
2021/05/15 00:21:14;;;;;;;14.65;11.45;;;13.30;93.60;;;;;;5030739;28;20029;-85
2021/05/15 00:23:40;;;;;;;15.27;11.07;;;13.30;93.80;;;;;;5030831;28;20367;-85
2021/05/15 00:26:06;;;;;;;16.52;10.60;;;13.30;93.50;;;;;;5034113;28;20065;-86
2021/05/15 00:28:32;;;;;;;16.48;10.60;;;13.30;93.40;;;;;;5051820;28;20017;-85
2021/05/15 00:30:58;;;;;;;14.45;11.38;;;13.30;93.20;;;;;;5034061;28;20646;-85
2021/05/15 00:33:25;;;;;;;16.13;10.98;;;13.30;93.30;;;;;;5051906;28;20025;-85
2021/05/15 00:35:51;;;;;;;15.70;10.85;;;13.30;93.20;;;;;;5034122;28;20036;-85
2021/05/15 00:38:17;;;;;;;16.25;10.85;;;13.20;93.40;;;;;;5033976;28;20029;-85
2021/05/15 00:40:42;;;;;;;14.93;10.93;;;13.20;93.10;;;;;;5050908;28;20374;-86
2021/05/15 00:43:08;;;;;;;14.35;10.10;;;13.20;93.50;;;;;;5033989;28;20386;-86
2021/05/15 00:45:35;;;;;;;16.00;11.02;;;13.20;93.50;;;;;;5050869;28;20052;-88
2021/05/15 00:48:01;;;;;;;13.85;10.80;;;13.20;93.50;;;;;;5034153;28;20055;-85
2021/05/15 00:50:28;;;;;;;15.55;11.27;;;13.20;93.90;;;;;;5050180;28;20127;-85
2021/05/15 00:52:54;;;;;;;15.50;10.82;;;13.20;93.40;;;;;;5051700;28;20385;-85
2021/05/15 00:55:20;;;;;;;12.88;10.95;;;13.10;93.40;;;;;;5033902;28;20025;-86
2021/05/15 00:57:47;;;;;;;14.15;10.38;;;13.10;93.40;;;;;;5033734;28;20021;-85
2021/05/15 01:00:14;;;;;;;16.42;10.40;;;13.10;93.40;;;;;;5033841;28;20505;-85
2021/05/15 01:02:40;;;;;;;16.25;11.27;;;13.10;93.50;;;;;;5033611;28;20025;-85
2021/05/15 01:05:08;;;;;;;18.67;12.23;;;13.00;93.30;;;;;;5051652;28;20109;-85
2021/05/15 01:07:34;;;;;;;15.30;11.40;;;13.00;93.20;;;;;;5051408;28;20075;-85
2021/05/15 01:10:00;;;;;;;14.32;11.00;;;13.00;93.30;;;;;;5017247;28;20021;-85
2021/05/15 01:12:26;;;;;;;15.00;10.60;;;12.90;93.10;;;;;;5051603;28;20033;-85
2021/05/15 01:14:51;;;;;;;16.20;11.32;;;12.90;93.20;;;;;;5033548;28;20021;-85
2021/05/15 01:17:17;;;;;;;17.45;11.88;;;12.90;93.20;;;;;;5017178;28;20033;-85
2021/05/15 01:19:43;;;;;;;17.17;11.57;;;12.90;93.30;;;;;;5033483;28;20021;-85
2021/05/15 01:22:12;;;;;;;15.75;11.65;;;12.80;93.50;;;;;;5017039;28;20478;-85
2021/05/15 01:24:39;;;;;;;15.27;11.13;;;12.80;93.50;;;;;;5033530;28;20021;-85
2021/05/15 01:27:06;;;;;;;15.82;11.95;;;12.80;93.30;;;;;;5051445;28;20120;-85
2021/05/15 01:29:32;;;;;;;15.80;12.07;;;12.80;93.60;;;;;;5052645;28;20052;-85
2021/05/15 01:32:04;;;;;;;14.50;11.43;;;12.80;93.50;;;;;;5020479;28;20025;-86
2021/05/15 01:34:30;;;;;;;15.95;11.82;;;12.70;93.80;;;;;;5054997;28;20032;-85
2021/05/15 01:36:56;;;;;;;15.82;12.82;;;12.70;93.80;;;;;;5037023;28;20033;-85
2021/05/15 01:39:22;;;;;;;16.05;11.77;;;12.70;93.90;;;;;;5036784;28;20029;-85
2021/05/15 01:41:47;;;;;;;14.88;12.20;;;12.70;94.20;;;;;;5036831;28;20272;-84
2021/05/15 01:44:14;;;;;;;17.25;12.07;;;12.70;94.00;;;;;;5036643;28;20043;-85
2021/05/15 01:46:39;;;;;;;15.65;12.00;;;12.70;93.80;;;;;;5053317;28;20029;-86
2021/05/15 01:49:05;;;;;;;18.98;12.50;;;12.70;94.00;;;;;;5036694;28;20413;-85
2021/05/15 01:51:32;;;;;;;14.93;11.75;;;12.70;93.80;;;;;;5053186;28;20081;-85
2021/05/15 01:53:57;;;;;;;16.63;12.02;;;12.60;93.30;;;;;;5053132;28;20021;-84
2021/05/15 01:56:28;;;;;;;17.27;11.40;;;12.60;93.70;;;;;;5020155;28;20293;-85
2021/05/15 01:58:54;;;;;;;14.68;11.55;;;12.50;93.50;;;;;;5054423;28;20027;-85
2021/05/15 02:01:21;;;;;;;14.73;11.00;;;12.50;93.50;;;;;;5054375;28;20029;-85
2021/05/15 02:03:47;;;;;;;17.55;11.25;;;12.40;93.20;;;;;;5054407;28;20029;-85
2021/05/15 02:06:14;;;;;;;14.57;11.98;;;12.40;93.30;;;;;;5054136;28;20029;-85
2021/05/15 02:08:45;;;;;;;15.60;11.82;;;12.30;93.60;;;;;;5036306;28;20482;-85
2021/05/15 02:11:16;;;;;;;16.50;11.50;;;12.20;94.00;;;;;;5036211;28;20501;-85
2021/05/15 02:13:49;;;;;;;17.88;11.82;;;12.20;94.00;;;;;;5053031;28;20497;-85
2021/05/15 02:16:17;;;;;;;15.43;11.70;;;12.20;93.60;;;;;;5035973;28;20086;-85
2021/05/15 02:18:43;;;;;;;17.35;12.38;;;12.10;93.30;;;;;;5034545;28;20017;-84
2021/05/15 02:21:09;;;;;;;15.65;10.88;;;12.10;93.60;;;;;;5054081;28;20029;-85
2021/05/15 02:23:35;;;;;;;13.93;11.27;;;12.00;93.10;;;;;;5035743;28;20033;-85
2021/05/15 02:26:02;;;;;;;17.48;13.05;;;11.90;93.60;;;;;;5035907;28;20025;-85
2021/05/15 02:28:27;;;;;;;14.60;11.45;;;11.90;94.40;;;;;;5019600;28;20025;-85
2021/05/15 02:30:53;;;;;;;15.20;12.00;;;11.90;94.00;;;;;;5019400;28;20108;-85
2021/05/15 02:33:19;;;;;;;17.70;12.07;;;11.90;94.50;;;;;;5038169;28;20016;-85
2021/05/15 02:35:46;;;;;;;17.75;12.80;;;11.90;94.70;;;;;;5035812;28;20029;-85
2021/05/15 02:38:13;;;;;;;16.00;12.50;;;11.90;94.40;;;;;;5035617;28;20502;-85
2021/05/15 02:40:40;;;;;;;17.20;12.75;;;11.90;94.50;;;;;;5040055;28;20043;-85
2021/05/15 02:43:06;;;;;;;16.60;11.73;;;11.90;94.70;;;;;;5035732;28;20471;-84
2021/05/15 02:45:33;;;;;;;18.25;12.68;;;11.90;94.90;;;;;;5021767;28;20033;-85
2021/05/15 02:47:59;;;;;;;15.82;12.55;;;11.90;95.10;;;;;;5048531;28;20025;-85
2021/05/15 02:50:26;;;;;;;17.02;12.60;;;11.90;95.00;;;;;;5051786;28;20045;-85
2021/05/15 02:52:52;;;;;;;17.13;12.98;;;11.90;95.20;;;;;;5035621;28;20021;-84
2021/05/15 02:55:21;;;;;;;19.75;13.15;;;12.00;95.10;;;;;;5035459;28;20518;-85
2021/05/15 02:58:05;;;;;;;15.63;12.73;;;11.90;95.20;;;;;;5052747;28;20013;-85
2021/05/15 03:00:31;;;;;;;16.05;11.90;;;12.00;95.20;;;;;;5051058;28;20017;-85
2021/05/15 03:02:57;;;;;;;17.27;12.52;;;12.00;95.30;;;;;;5053133;28;20047;-85
2021/05/15 03:05:24;;;;;;;18.25;12.85;;;12.00;95.10;;;;;;5018807;28;20030;-85
2021/05/15 03:07:50;;;;;;;17.83;13.43;;;12.00;95.00;;;;;;5053007;28;20029;-85
2021/05/15 03:10:18;;;;;;;18.40;13.80;;;12.00;95.10;;;;;;5032662;28;20048;-85
2021/05/15 03:12:43;;;;;;;16.13;12.25;;;12.00;95.30;;;;;;5035174;28;20497;-84
2021/05/15 03:15:11;;;;;;;16.77;12.38;;;12.00;95.30;;;;;;5048780;28;20029;-84
2021/05/15 03:17:42;;;;;;;17.08;12.95;;;12.00;95.30;;;;;;5053045;28;20364;-85
2021/05/15 03:20:10;;;;;;;16.33;12.20;;;12.00;95.50;;;;;;5051571;28;20513;-85
2021/05/15 03:22:36;;;;;;;17.23;13.25;;;12.00;95.50;;;;;;5034891;28;20070;-85
2021/05/15 03:25:04;;;;;;;17.63;13.52;;;12.00;95.50;;;;;;5034817;28;20025;-84
2021/05/15 03:27:30;;;;;;;17.42;12.90;;;12.00;95.40;;;;;;5035027;28;20428;-85
2021/05/15 03:29:56;;;;;;;17.63;12.30;;;11.90;95.00;;;;;;5051384;28;20028;-85
2021/05/15 03:32:22;;;;;;;19.17;13.07;;;11.90;94.80;;;;;;5051139;28;20378;-84
2021/05/15 03:34:47;;;;;;;17.83;12.30;;;11.80;94.50;;;;;;5051133;28;20032;-85
2021/05/15 03:37:13;;;;;;;16.98;12.63;;;11.80;94.50;;;;;;5051405;28;20021;-85
2021/05/15 03:39:39;;;;;;;15.57;11.52;;;11.70;94.60;;;;;;5033076;28;20386;-85
2021/05/15 03:42:04;;;;;;;18.52;13.13;;;11.60;94.60;;;;;;5051219;28;20382;-85
2021/05/15 03:44:30;;;;;;;17.38;11.40;;;11.60;94.90;;;;;;5051353;28;20569;-85
2021/05/15 03:46:56;;;;;;;15.07;11.43;;;11.50;94.90;;;;;;5034469;28;20029;-84
2021/05/15 03:49:22;;;;;;;17.60;12.55;;;11.50;94.80;;;;;;5060518;22;20056;-84
2021/05/15 03:51:47;;;;;;;16.38;11.73;;;11.50;95.00;;;;;;5052078;28;20027;-84
2021/05/15 03:54:13;;;;;;;19.92;12.80;;;11.40;95.00;;;;;;5034372;28;20071;-84
2021/05/15 03:56:39;;;;;;;18.20;12.93;;;11.40;95.10;;;;;;5034287;28;20128;-84
2021/05/15 03:59:05;;;;;;;16.23;11.82;;;11.40;95.10;;;;;;5034449;28;20909;-84
2021/05/15 04:01:31;;;;;;;19.10;13.75;;;11.40;95.20;;;;;;5018040;28;20029;-84
2021/05/15 04:03:56;;;;;;;16.70;12.13;;;11.40;95.30;;;;;;5017810;28;20367;-84
2021/05/15 04:06:22;;;;;;;18.40;13.68;;;11.40;95.30;;;;;;5017702;28;20028;-83
2021/05/15 04:08:48;;;;;;;17.80;13.32;;;11.40;95.50;;;;;;5017848;28;20021;-83
2021/05/15 04:11:13;;;;;;;19.88;13.80;;;11.40;95.50;;;;;;5017739;28;20075;-84
2021/05/15 04:13:47;;;;;;;17.17;12.88;;;11.40;95.50;;;;;;5034290;28;20057;-84
2021/05/15 04:18:42;;;;;;;21.55;13.93;;;11.40;95.50;;;;;;5034831;28;20440;-84
2021/05/15 04:21:07;;;;;;;18.92;13.88;;;11.30;95.40;;;;;;5017861;28;20112;-84
2021/05/15 04:23:33;;;;;;;22.98;14.15;;;11.40;95.70;;;;;;5052363;28;20114;-84
2021/05/15 04:26:00;;;;;;;23.17;14.70;;;11.40;95.70;;;;;;5052038;28;20446;-84
2021/05/15 04:28:25;;;;;;;19.58;13.55;;;11.40;95.80;;;;;;5034139;28;20028;-84
2021/05/15 04:30:52;;;;;;;20.30;14.20;;;11.40;95.50;;;;;;5017758;28;20030;-84
2021/05/15 04:33:19;;;;;;;21.27;14.55;;;11.40;95.60;;;;;;5033952;28;20023;-83
2021/05/15 04:35:45;;;;;;;21.92;14.70;;;11.40;95.50;;;;;;5017882;28;20044;-83
2021/05/15 04:38:12;;;;;;;22.02;14.65;;;11.40;95.70;;;;;;5017553;28;20033;-83
2021/05/15 04:40:38;;;;;;;21.30;15.20;;;11.50;95.80;;;;;;5001845;28;20033;-84
2021/05/15 04:43:03;;;;;;;19.67;14.40;;;11.50;95.80;;;;;;5023068;28;20032;-84
2021/05/15 04:45:31;;;;;;;20.98;14.82;;;11.40;95.50;;;;;;5001262;28;20032;-84
2021/05/15 04:47:58;;;;;;;21.38;15.02;;;11.40;95.70;;;;;;5034046;28;20021;-84
2021/05/15 04:50:24;;;;;;;19.15;14.02;;;11.40;95.60;;;;;;5021388;28;20045;-84
2021/05/15 04:52:51;;;;;;;22.08;14.85;;;11.40;95.50;;;;;;5033918;28;20021;-83
2021/05/15 04:55:17;;;;;;;21.23;14.48;;;11.30;95.40;;;;;;5017393;28;20029;-83
2021/05/15 04:57:43;;;;;;;20.75;15.35;;;11.30;95.40;;;;;;5017429;28;20063;-83
2021/05/15 05:00:09;;;;;;;19.55;15.20;;;11.30;95.60;;;;;;5037201;28;20584;-83
2021/05/15 05:02:35;;;;;;;22.48;16.00;;;11.30;95.50;;;;;;5036972;28;20036;-83
2021/05/15 05:05:00;;;;;;;22.33;16.50;;;11.30;95.70;;;;;;5022825;28;20029;-83
2021/05/15 05:07:26;;;;;;;21.73;16.25;;;11.30;95.70;;;;;;5009113;28;20075;-83
2021/05/15 05:09:52;;;;;;;22.65;15.48;;;11.30;95.70;;;;;;5040680;28;20173;-84
2021/05/15 05:12:17;;;;;;;25.33;16.77;;;11.30;95.70;;;;;;5040744;28;20048;-84
2021/05/15 05:14:43;;;;;;;24.25;16.58;;;11.20;95.70;;;;;;5040964;28;20442;-84
2021/05/15 05:17:09;;;;;;;21.02;16.42;;;11.20;95.70;;;;;;5024089;28;20028;-83
2021/05/15 05:22:57;;;;;;;22.38;15.88;;;11.20;95.80;;;;;;5064565;28;20086;-84
2021/05/15 05:25:22;;;;;;;20.67;15.60;;;11.20;95.90;;;;;;5023339;28;20036;-83
2021/05/15 05:27:54;;;;;;;21.33;16.15;;;11.20;96.00;;;;;;5018187;28;20017;-84
2021/05/15 05:30:21;;;;;;;22.95;16.50;;;11.20;96.30;;;;;;5044174;28;20017;-84
2021/05/15 05:32:49;;;;;;;21.90;16.08;;;11.30;96.20;;;;;;5031923;28;20382;-84
2021/05/15 05:35:15;;;;;;;21.98;15.70;;;11.30;96.20;;;;;;5039609;28;20378;-84
2021/05/15 05:37:42;;;;;;;22.85;15.98;;;11.30;96.10;;;;;;5013695;28;20419;-84
2021/05/15 05:40:12;;;;;;;22.65;15.75;;;11.40;96.20;;;;;;5042364;28;20036;-84
2021/05/15 05:42:38;;;;;;;20.60;15.90;;;11.40;96.30;;;;;;5029230;28;20044;-84
2021/05/15 05:45:06;;;;;;;21.38;15.50;;;11.40;96.30;;;;;;5061616;28;20241;-84
2021/05/15 05:47:32;;;;;;;22.48;16.52;;;11.50;96.40;;;;;;5050525;28;20028;-84
2021/05/15 05:49:58;;;;;;;22.02;15.73;;;11.50;96.40;;;;;;5032591;28;20045;-84
2021/05/15 05:52:24;;;;;;;23.88;16.15;;;11.50;96.40;;;;;;5009885;28;20529;-83
2021/05/15 05:54:49;;;;;;;23.73;16.10;;;11.60;96.50;;;;;;5073284;28;20035;-84
2021/05/15 05:57:15;;;;;;;23.55;16.50;;;11.60;96.40;;;;;;5022146;28;20478;-83
2021/05/15 05:59:41;;;;;;;21.83;15.73;;;11.60;96.40;;;;;;5003959;28;20036;-84
2021/05/15 06:02:06;;;;;;;20.38;15.43;;;11.70;96.70;;;;;;5040147;28;20070;-84
2021/05/15 06:04:33;;;;;;;20.17;15.30;;;11.70;96.40;;;;;;5009523;28;20028;-84
2021/05/15 06:06:58;;;;;;;29.55;20.67;;;11.70;96.50;;;;;;5044886;28;20513;-83
2021/05/15 06:09:24;;;;;;;28.20;20.92;;;11.70;96.60;;;;;;5050395;28;20017;-83
2021/05/15 06:11:50;;;;;;;30.77;22.02;;;11.80;96.60;;;;;;5036482;28;20021;-83
2021/05/15 06:14:15;;;;;;;34.97;24.38;;;11.80;96.70;;;;;;5039843;28;20024;-84
2021/05/15 06:16:41;;;;;;;43.25;25.75;;;11.80;96.70;;;;;;5005608;28;20116;-84
2021/05/15 06:19:06;;;;;;;35.58;25.33;;;11.80;96.70;;;;;;5003471;28;20086;-83
2021/05/15 06:21:32;;;;;;;39.60;27.85;;;11.70;96.70;;;;;;5028584;28;20029;-83
2021/05/15 06:23:58;;;;;;;38.58;26.10;;;11.70;96.80;;;;;;5029816;28;20028;-83
2021/05/15 06:26:23;;;;;;;37.70;25.67;;;11.70;96.70;;;;;;5059559;28;20028;-84
2021/05/15 06:28:49;;;;;;;36.63;25.80;;;11.70;96.90;;;;;;5047498;28;20025;-83
2021/05/15 06:31:15;;;;;;;33.78;23.63;;;11.70;96.80;;;;;;5044672;28;20032;-84
2021/05/15 06:33:40;;;;;;;35.40;26.00;;;11.80;96.90;;;;;;5026031;28;20023;-84
2021/05/15 06:36:06;;;;;;;38.95;25.88;;;11.70;96.90;;;;;;5041942;28;20025;-83
2021/05/15 06:38:32;;;;;;;43.42;29.27;;;11.80;96.90;;;;;;5022794;28;20497;-83
2021/05/15 06:40:57;;;;;;;40.78;26.75;;;11.80;96.70;;;;;;5007459;28;20513;-83
2021/05/15 06:43:23;;;;;;;46.38;28.65;;;11.80;96.70;;;;;;5027748;28;20045;-83
2021/05/15 06:45:49;;;;;;;42.53;27.60;;;11.70;96.70;;;;;;5043706;28;20586;-84
2021/05/15 06:48:14;;;;;;;43.83;29.08;;;11.70;96.80;;;;;;5019399;28;20044;-84
2021/05/15 06:50:40;;;;;;;49.40;31.40;;;11.70;96.70;;;;;;5047517;28;20135;-84
2021/05/15 06:53:06;;;;;;;43.05;28.30;;;11.70;96.60;;;;;;5017684;28;20021;-83
2021/05/15 06:55:32;;;;;;;48.97;29.30;;;11.70;96.60;;;;;;5053594;28;20474;-84
2021/05/15 06:58:02;;;;;;;46.70;28.38;;;11.70;96.70;;;;;;5055279;28;20052;-84
2021/05/15 07:00:28;;;;;;;43.10;28.15;;;11.70;96.70;;;;;;5039577;28;20474;-83
2021/05/15 07:02:54;;;;;;;44.22;30.02;;;11.70;96.60;;;;;;5005057;28;20072;-83
2021/05/15 07:05:19;;;;;;;44.33;29.23;;;11.70;96.30;;;;;;5002666;28;20036;-84
2021/05/15 07:07:45;;;;;;;41.17;27.60;;;11.70;96.30;;;;;;5031224;28;20086;-84
2021/05/15 07:10:11;;;;;;;47.08;29.27;;;11.70;96.40;;;;;;5047527;28;20029;-84
2021/05/15 07:12:37;;;;;;;40.47;26.65;;;11.70;96.20;;;;;;5036569;28;20016;-84
2021/05/15 07:15:04;;;;;;;45.13;29.80;;;11.70;96.20;;;;;;5072967;28;20021;-83
2021/05/15 07:17:30;;;;;;;41.90;26.60;;;11.70;96.30;;;;;;5031756;28;20093;-84
2021/05/15 07:19:56;;;;;;;43.42;27.60;;;11.70;96.20;;;;;;5020581;28;20412;-84
2021/05/15 07:22:24;;;;;;;41.58;26.38;;;11.70;96.20;;;;;;5034104;28;20021;-83
2021/05/15 07:24:51;;;;;;;35.28;23.90;;;11.80;96.30;;;;;;5034499;28;20085;-84
2021/05/15 07:27:18;;;;;;;40.13;25.98;;;11.80;96.40;;;;;;5033510;28;20028;-84
2021/05/15 07:29:44;;;;;;;37.08;24.25;;;11.90;96.40;;;;;;5035391;28;20020;-83
2021/05/15 07:32:10;;;;;;;36.53;23.95;;;11.80;96.30;;;;;;5018785;28;20037;-84
2021/05/15 07:34:36;;;;;;;45.47;28.85;;;11.90;96.30;;;;;;5006781;28;20028;-84
2021/05/15 07:37:02;;;;;;;42.58;28.10;;;11.90;96.20;;;;;;5034143;28;20018;-84
2021/05/15 07:39:28;;;;;;;40.42;28.40;;;12.00;96.10;;;;;;5022276;28;20029;-84
2021/05/15 07:41:54;;;;;;;38.03;26.58;;;11.90;95.90;;;;;;5017714;28;20040;-84
2021/05/15 07:44:21;;;;;;;44.45;28.73;;;11.90;95.80;;;;;;5034364;28;20529;-83
2021/05/15 07:46:47;;;;;;;42.20;27.45;;;11.90;95.60;;;;;;5010366;28;20167;-83
2021/05/15 07:49:13;;;;;;;37.17;26.35;;;11.90;95.80;;;;;;5001764;28;20441;-84
2021/05/15 07:51:39;;;;;;;38.67;26.60;;;12.00;95.40;;;;;;5018510;28;20033;-84
2021/05/15 07:54:05;;;;;;;37.78;26.70;;;12.00;95.50;;;;;;5027696;28;20030;-83
2021/05/15 07:56:30;;;;;;;41.63;27.00;;;12.00;95.70;;;;;;5033439;28;20057;-83
2021/05/15 07:58:56;;;;;;;38.25;27.40;;;12.00;95.50;;;;;;5050760;28;20106;-83
2021/05/15 08:01:22;;;;;;;37.17;26.65;;;12.10;95.40;;;;;;5023348;28;20031;-84
2021/05/15 08:03:47;;;;;;;36.53;26.77;;;12.10;95.20;;;;;;5041640;28;20025;-84
2021/05/15 08:06:13;;;;;;;38.10;27.85;;;12.10;95.20;;;;;;5003330;28;20025;-83
2021/05/15 08:08:38;;;;;;;38.05;26.48;;;12.10;95.20;;;;;;5024939;28;20032;-84
2021/05/15 08:11:05;;;;;;;40.05;27.13;;;12.20;95.10;;;;;;5006649;28;20040;-84
2021/05/15 08:13:31;;;;;;;38.30;26.88;;;12.10;95.10;;;;;;5038795;28;20028;-84
2021/05/15 08:15:56;;;;;;;32.58;23.77;;;12.20;95.10;;;;;;5020073;28;20033;-84
2021/05/15 08:18:22;;;;;;;34.13;23.45;;;12.20;95.10;;;;;;5050615;28;20143;-84
2021/05/15 08:20:48;;;;;;;32.40;22.45;;;12.20;95.00;;;;;;5034471;28;20029;-84
2021/05/15 08:23:14;;;;;;;35.67;24.15;;;12.20;94.90;;;;;;5034386;28;20036;-84
2021/05/15 08:25:41;;;;;;;35.15;23.98;;;12.30;95.00;;;;;;5052156;28;20031;-84
2021/05/15 08:28:11;;;;;;;38.65;24.88;;;12.30;94.80;;;;;;5017546;28;20033;-82
2021/05/15 08:30:39;;;;;;;32.87;23.93;;;12.40;94.60;;;;;;5030930;28;20026;-84
2021/05/15 08:33:06;;;;;;;27.42;21.23;;;12.50;94.50;;;;;;5029767;28;20021;-83
2021/05/15 08:35:32;;;;;;;28.92;21.33;;;12.50;94.60;;;;;;5017696;28;20485;-84
2021/05/15 08:37:58;;;;;;;26.25;20.38;;;12.60;93.80;;;;;;5032130;28;20025;-84
2021/05/15 08:40:25;;;;;;;25.70;18.38;;;12.70;94.10;;;;;;5042176;28;20471;-84
2021/05/15 08:42:53;;;;;;;30.42;21.92;;;12.70;94.30;;;;;;5050249;28;20048;-84
2021/05/15 08:45:20;;;;;;;26.67;19.90;;;12.80;93.70;;;;;;5022966;28;20023;-84
2021/05/15 08:47:46;;;;;;;25.85;18.77;;;12.90;93.90;;;;;;5048473;28;20500;-84
2021/05/15 08:50:18;;;;;;;25.38;18.40;;;12.90;93.90;;;;;;5043045;28;20049;-84
2021/05/15 08:52:46;;;;;;;26.80;18.80;;;13.00;93.90;;;;;;5057876;28;20076;-84
2021/05/15 08:55:21;;;;;;;30.17;21.08;;;13.00;94.10;;;;;;5057523;28;20442;-84
2021/05/15 08:57:47;;;;;;;25.83;19.52;;;13.00;93.60;;;;;;5057672;28;20017;-84
2021/05/15 09:00:18;;;;;;;23.88;17.70;;;13.00;93.50;;;;;;5009929;28;20032;-83
2021/05/15 09:02:49;;;;;;;25.73;18.48;;;13.10;93.40;;;;;;5034603;28;20044;-83
2021/05/15 09:05:17;;;;;;;24.02;18.05;;;13.00;93.10;;;;;;5032154;28;20021;-83
2021/05/15 09:08:00;;;;;;;25.67;18.40;;;13.00;93.20;;;;;;5037862;28;20100;-84
2021/05/15 09:10:28;;;;;;;24.77;18.20;;;13.10;93.30;;;;;;5020965;28;20028;-83
2021/05/15 09:13:10;;;;;;;28.92;21.35;;;13.10;93.40;;;;;;5055690;28;20021;-83
2021/05/15 09:15:41;;;;;;;27.40;20.52;;;13.10;92.10;;;;;;5037914;28;20021;-83
2021/05/15 09:18:07;;;;;;;29.38;20.10;;;13.10;91.90;;;;;;5037693;28;20017;-83
2021/05/15 09:20:34;;;;;;;25.63;18.98;;;13.00;91.10;;;;;;5021555;28;20029;-84
2021/05/15 09:23:23;;;;;;;27.73;20.70;;;13.00;91.90;;;;;;5004629;28;20037;-85
2021/05/15 09:26:08;;;;;;;27.08;20.70;;;13.10;91.60;;;;;;5033171;28;20134;-84
2021/05/15 09:28:33;;;;;;;28.83;21.98;;;13.00;91.50;;;;;;5060991;28;20414;-84
2021/05/15 09:31:15;;;;;;;27.45;21.50;;;13.00;90.80;;;;;;5062587;28;20021;-85
2021/05/15 09:33:41;;;;;;;;;;;13.00;91.70;;;;;;5042814;28;20908;-84
2021/05/15 09:36:19;;;;;;;27.75;20.67;;;13.10;91.60;;;;;;5038412;28;19959;-84
2021/05/15 09:38:46;;;;;;;29.00;20.98;;;13.10;91.20;;;;;;5050383;28;20493;-84
2021/05/15 09:41:12;;;;;;;27.10;20.33;;;13.00;91.40;;;;;;5017847;28;20026;-84
2021/05/15 09:43:38;;;;;;;27.08;20.77;;;13.10;91.60;;;;;;5018071;28;20414;-84
2021/05/15 09:46:04;;;;;;;27.13;20.58;;;13.10;91.90;;;;;;5034787;28;20088;-84
2021/05/15 09:51:13;;;;;;;27.48;20.98;;;13.20;92.20;;;;;;5070975;28;20052;-84
2021/05/15 09:53:38;;;;;;;26.38;20.00;;;13.30;91.90;;;;;;5046917;28;20029;-86
2021/05/15 09:56:04;;;;;;;28.25;20.45;;;13.40;91.50;;;;;;5024591;28;20032;-84
2021/05/15 09:58:30;;;;;;;24.40;19.02;;;13.50;91.70;;;;;;5041255;28;20038;-85
2021/05/15 10:00:55;;;;;;;23.95;18.30;;;13.60;92.10;;;;;;5024657;28;20121;-86
2021/05/15 10:03:26;;;;;;;24.48;18.40;;;13.80;92.20;;;;;;5014196;28;20037;-83
2021/05/15 10:06:07;;;;;;;22.30;17.92;;;13.90;92.30;;;;;;5036570;28;20024;-83
2021/05/15 10:08:34;;;;;;;21.55;17.55;;;14.10;92.00;;;;;;5027909;28;20024;-83
2021/05/15 10:11:03;;;;;;;22.00;17.25;;;14.20;91.90;;;;;;5026295;28;20021;-83
2021/05/15 10:13:29;;;;;;;23.77;17.38;;;14.30;90.80;;;;;;5013712;28;20025;-83
2021/05/15 10:15:55;;;;;;;24.30;17.33;;;14.30;90.00;;;;;;5056021;28;20343;-82
2021/05/15 10:18:21;;;;;;;22.95;18.17;;;14.40;90.00;;;;;;5065810;28;20021;-82
2021/05/15 10:20:47;;;;;;;25.17;18.52;;;14.50;88.40;;;;;;5020058;28;20032;-83
2021/05/15 10:23:27;;;;;;;23.55;17.83;;;14.50;88.20;;;;;;5016628;28;20458;-82
2021/05/15 10:26:03;;;;;;;21.83;16.95;;;14.60;88.40;;;;;;5064671;28;20017;-82
2021/05/15 10:28:35;;;;;;;21.75;16.77;;;14.70;89.70;;;;;;5036265;28;20127;-85
2021/05/15 10:31:05;;;;;;;21.85;17.10;;;14.80;90.00;;;;;;5045447;28;20417;-85
2021/05/15 10:33:32;;;;;;;19.80;16.42;;;14.90;89.80;;;;;;5036362;28;20016;-83
2021/05/15 10:35:58;;;;;;;24.20;16.92;;;15.00;87.10;;;;;;5016236;28;20533;-82
2021/05/15 10:38:35;;;;;;;20.88;16.40;;;15.10;87.50;;;;;;5065489;28;20021;-83
2021/05/15 10:41:13;;;;;;;23.08;15.50;;;15.20;85.70;;;;;;5046908;28;20028;-84
2021/05/15 10:43:41;;;;;;;17.98;14.43;;;15.20;84.90;;;;;;5050998;28;20044;-84
2021/05/15 10:46:19;;;;;;;20.15;14.25;;;15.20;85.70;;;;;;5046792;28;20123;-84
2021/05/15 10:49:05;;;;;;;17.75;12.88;;;15.20;84.60;;;;;;5037283;28;20051;-83
2021/05/15 10:51:37;;;;;;;19.05;14.60;;;15.30;84.10;;;;;;5036158;28;20444;-84
2021/05/15 10:54:05;;;;;;;18.88;14.98;;;15.20;84.00;;;;;;5039271;28;20060;-83
2021/05/15 10:56:31;;;;;;;17.65;13.50;;;15.20;83.70;;;;;;5016614;28;20082;-86
2021/05/15 10:59:11;;;;;;;17.42;13.40;;;15.20;84.30;;;;;;5015513;28;20030;-82
2021/05/15 11:01:47;;;;;;;17.13;13.52;;;15.20;85.40;;;;;;5035129;28;20112;-83
2021/05/15 11:04:20;;;;;;;17.77;13.30;;;15.20;85.70;;;;;;5052714;28;20031;-85
2021/05/15 11:06:56;;;;;;;16.83;12.27;;;15.30;86.50;;;;;;5021111;28;20040;-84
2021/05/15 11:09:23;;;;;;;16.42;12.23;;;15.30;87.40;;;;;;5034855;28;20484;-78
2021/05/15 11:11:49;;;;;;;17.80;13.18;;;15.30;88.20;;;;;;5035057;28;20056;-83
2021/05/15 11:14:31;;;;;;;18.35;13.38;;;15.40;87.20;;;;;;5034819;28;20017;-83
2021/05/15 11:17:12;;;;;;;19.73;15.23;;;15.50;86.40;;;;;;5037326;28;20029;-83
2021/05/15 11:20:02;;;;;;;22.60;16.02;;;15.50;82.60;;;;;;5053282;28;20025;-83
2021/05/15 11:22:51;;;;;;;17.73;14.20;;;15.50;81.60;;;;;;5044051;28;20032;-83
2021/05/15 11:25:28;;;;;;;18.77;14.65;;;15.50;81.60;;;;;;5023089;28;20056;-83
2021/05/15 11:28:02;;;;;;;18.33;13.93;;;15.40;81.80;;;;;;5053134;28;20120;-82
2021/05/15 11:30:32;;;;;;;17.48;13.05;;;15.50;80.70;;;;;;5035716;28;20018;-82
2021/05/15 11:33:04;;;;;;;20.63;15.73;;;15.50;82.90;;;;;;5035227;28;20029;-82
2021/05/15 11:35:42;;;;;;;22.13;15.93;;;15.50;80.20;;;;;;5035479;28;20035;-82
2021/05/15 11:38:11;;;;;;;20.17;14.35;;;15.50;81.00;;;;;;5035641;28;20028;-82
2021/05/15 11:40:45;;;;;;;20.83;14.23;;;15.50;82.40;;;;;;5053509;28;20055;-84
2021/05/15 11:43:17;;;;;;;18.63;14.00;;;15.50;83.40;;;;;;5034855;28;20025;-83
2021/05/15 11:45:42;;;;;;;16.98;13.20;;;15.50;84.40;;;;;;5054164;28;20527;-83
2021/05/15 11:48:20;;;;;;;18.25;14.50;;;15.60;85.70;;;;;;5015526;28;20053;-83
2021/05/15 11:51:12;;;;;;;21.15;15.02;;;15.60;85.30;;;;;;5052081;28;20381;-83
2021/05/15 11:53:43;;;;;;;23.48;16.95;;;15.60;83.10;;;;;;5027817;28;20016;-81
2021/05/15 11:56:10;;;;;;;15.18;11.50;;;15.50;81.40;;;;;;5056035;28;20086;-83
2021/05/15 11:58:42;;;;;;;15.07;10.30;;;15.40;81.10;;;;;;5037551;28;20119;-85
2021/05/15 12:01:35;;;;;;;13.43;10.25;;;15.20;83.50;;;;;;5036351;28;20025;-83
2021/05/15 12:04:08;;;;;;;9.20;6.55;;;14.90;86.20;;;;;;5053301;28;20025;-84
2021/05/15 12:06:34;;;;;;;13.02;6.50;;;14.60;86.50;;;;;;5035851;28;20481;-84
2021/05/15 12:09:09;;;;;;;8.32;4.90;;;14.40;86.60;;;;;;5042307;28;20086;-86
2021/05/15 12:11:35;;;;;;;8.13;3.67;;;14.20;88.70;;;;;;5042382;28;20129;-86
2021/05/15 12:14:00;;;;;;;5.47;3.45;;;14.00;90.10;;;;;;5035998;28;20877;-87
2021/05/15 12:16:26;;;;;;;6.18;2.80;;;13.80;91.10;;;;;;5036284;28;20024;-87
2021/05/15 12:18:52;;;;;;;5.13;2.58;;;13.70;91.60;;;;;;5020040;28;20112;-86
2021/05/15 12:21:26;;;;;;;4.97;2.58;;;13.60;92.30;;;;;;5036241;28;20092;-86
2021/05/15 12:23:53;;;;;;;3.83;2.13;;;13.50;92.90;;;;;;5020090;28;20051;-86
2021/05/15 12:26:22;;;;;;;3.83;2.05;;;13.60;93.90;;;;;;5035559;28;20108;-86
2021/05/15 12:28:55;;;;;;;3.47;1.92;;;13.60;93.70;;;;;;5035684;28;20033;-86
2021/05/15 12:31:26;;;;;;;3.00;1.92;;;13.60;94.30;;;;;;5035921;28;20029;-87
2021/05/15 12:33:55;;;;;;;6.22;1.95;;;13.60;94.60;;;;;;5052893;28;20017;-89
2021/05/15 12:36:20;;;;;;;3.20;1.50;;;13.60;94.70;;;;;;5034830;28;20067;-87
2021/05/15 12:38:48;;;;;;;3.45;1.75;;;13.60;94.90;;;;;;5034731;28;20025;-86
2021/05/15 12:41:19;;;;;;;3.28;1.65;;;13.60;95.10;;;;;;5034332;28;20568;-77